TUPJ/RAD METAR and TAF weather

Enter ICAO airport designator
Station Type Date Time Source
TUPJ METAR 2019/04/19 04:00 UTC NOAA

TUPJ 190400Z 10007KT 10SM FEW020 25/20 A3006 RMK Q1018


Station Type Date Time Source
TUPJ Decoded METAR 2019/04/19 04:00 UTC NOAA

Beef Island, Tortola, British Virgin Islands (TUPJ) 18-27N 064-32W
Apr 19, 2019 - 12:00 AM EDT / 2019.04.19 0400 UTC
Wind: from the E (100 degrees) at 8 MPH (7 KT):0
Visibility: 10 mile(s):0
Sky conditions: mostly clear
Temperature: 77 F (25 C)
Dew Point: 68 F (20 C)
Relative Humidity: 73%
Pressure (altimeter): 30.06 in. Hg (1017 hPa)
ob: TUPJ 190400Z 10007KT 10SM FEW020 25/20 A3006 RMK Q1018
cycle: 4

Station Type Date Time Source
TUPJ TAF 2019/04/18 18:48 UTC NOAA

TAF TUPJ 181700Z 1818/1918 12012KT 9999 SCT020

Example: see airport list